Aviation Digital Data Service (ADDS)

Output produced by METARs form (1548 UTC 03 June 2020)
found at http://www.aviationweather.gov/metar/data/
 
Forecast for: WIII (SOEKARNO-HATTA I, ID)
Text: TAF WIII 031100Z 0312/0418 11010KT 7000 SCT020
Forecast period: 1200 to 1400 UTC 03 June 2020
Forecast type: FROM: standard forecast or significant change
Winds: from the ESE (110 degrees) at 12 MPH (10 knots; 5.1 m/s)
Visibility: 4 miles (7 km)
Ceiling: at least 12,000 feet AGL
Clouds: scattered clouds at 2000 feet AGL
Weather: no significant weather forecast for this period
Text: BECMG 0314/0316 20005KT
Forecast period: 1400 UTC 03 June 2020 to 1800 UTC 04 June 2020
Forecast type: BECOMING: Conditions expected to become as follows by 1600 UTC 03 June 2020
Winds: from the SSW (200 degrees) at 6 MPH (5 knots; 2.6 m/s)
Visibility: 4 miles (7 km)
Ceiling: at least 12,000 feet AGL
Clouds: scattered clouds at 2000 feet AGL
Weather: no significant weather forecast for this period